Ashland, Montana
Current Conditions -  °F | °C
As of 2:53 AM on Tuesday 27 Jan 2015 (Local Time) from KMLS Reporting Station
Clear Clear  
Wind Chill: 31°   Ceiling: Unl
Heat Index: 36°   Visibility: 10mi
Dew Point: 29°   Wind: 6mph
Humidity: 76%   Direction: 180°S
Pressure: 29.9"   Gusts: NA
Location:  45.62°N, 106.31°W
Report Text: KMLS 270953Z AUTO 18005KT 10SM CLR 02/M02 A2990 RMK AO2 SLP132 T00221017
Loading
Personal Weather Stations






























Interactive Weather Map New forecast layout! Learn more

10-Day Weather Forecast

Advertisements
Track Severe Weather on mobile